sensor_id;sensor_type;location;lat;lon;timestamp;P1;durP1;ratioP1;P2;durP2;ratioP2
9234;SDS011;4652;42.716;23.218;2023-04-01T00:00:18;19.93;;;10.97;;
9234;SDS011;4652;42.716;23.218;2023-04-01T00:07:00;25.37;;;17.57;;
9234;SDS011;4652;42.716;23.218;2023-04-01T00:13:44;26.07;;;17.60;;
9234;SDS011;4652;42.716;23.218;2023-04-01T00:20:26;23.10;;;15.80;;
9234;SDS011;4652;42.716;23.218;2023-04-01T00:27:08;24.83;;;17.23;;
9234;SDS011;4652;42.716;23.218;2023-04-01T00:33:52;27.03;;;17.07;;
9234;SDS011;4652;42.716;23.218;2023-04-01T00:40:35;41.80;;;24.13;;
9234;SDS011;4652;42.716;23.218;2023-04-01T00:47:18;27.40;;;16.33;;
9234;SDS011;4652;42.716;23.218;2023-04-01T00:54:02;23.00;;;15.00;;
9234;SDS011;4652;42.716;23.218;2023-04-01T01:31:54;24.67;;;16.80;;
9234;SDS011;4652;42.716;23.218;2023-04-01T01:38:46;23.00;;;15.57;;
9234;SDS011;4652;42.716;23.218;2023-04-01T01:45:32;21.60;;;15.17;;
9234;SDS011;4652;42.716;23.218;2023-04-01T01:52:16;22.37;;;16.07;;
9234;SDS011;4652;42.716;23.218;2023-04-01T01:59:01;22.53;;;13.87;;
9234;SDS011;4652;42.716;23.218;2023-04-01T02:05:47;20.47;;;14.43;;
9234;SDS011;4652;42.716;23.218;2023-04-01T02:12:32;16.47;;;12.83;;
9234;SDS011;4652;42.716;23.218;2023-04-01T02:19:18;19.77;;;13.93;;
9234;SDS011;4652;42.716;23.218;2023-04-01T02:26:02;18.23;;;13.20;;
9234;SDS011;4652;42.716;23.218;2023-04-01T02:32:48;20.80;;;13.17;;
9234;SDS011;4652;42.716;23.218;2023-04-01T02:39:32;16.07;;;11.67;;
9234;SDS011;4652;42.716;23.218;2023-04-01T02:46:14;20.87;;;13.20;;
9234;SDS011;4652;42.716;23.218;2023-04-01T02:52:56;19.63;;;14.33;;
9234;SDS011;4652;42.716;23.218;2023-04-01T02:59:39;27.93;;;17.03;;
9234;SDS011;4652;42.716;23.218;2023-04-01T03:06:21;24.13;;;17.10;;
9234;SDS011;4652;42.716;23.218;2023-04-01T03:13:03;26.60;;;19.23;;
9234;SDS011;4652;42.716;23.218;2023-04-01T03:19:47;3.77;;;2.37;;
9234;SDS011;4652;42.716;23.218;2023-04-01T03:26:29;8.50;;;2.17;;
9234;SDS011;4652;42.716;23.218;2023-04-01T03:33:11;8.73;;;2.53;;
9234;SDS011;4652;42.716;23.218;2023-04-01T03:39:55;8.67;;;2.90;;
9234;SDS011;4652;42.716;23.218;2023-04-01T03:46:37;4.43;;;1.70;;
9234;SDS011;4652;42.716;23.218;2023-04-01T03:53:19;6.17;;;2.20;;
9234;SDS011;4652;42.716;23.218;2023-04-01T04:00:03;5.63;;;2.50;;
9234;SDS011;4652;42.716;23.218;2023-04-01T04:06:45;5.47;;;2.80;;
9234;SDS011;4652;42.716;23.218;2023-04-01T04:13:28;6.57;;;3.60;;
9234;SDS011;4652;42.716;23.218;2023-04-01T04:20:11;18.23;;;12.60;;
9234;SDS011;4652;42.716;23.218;2023-04-01T04:26:53;18.40;;;12.13;;
9234;SDS011;4652;42.716;23.218;2023-04-01T04:33:35;22.03;;;12.70;;
9234;SDS011;4652;42.716;23.218;2023-04-01T04:40:19;18.33;;;12.30;;
9234;SDS011;4652;42.716;23.218;2023-04-01T04:47:01;19.33;;;13.07;;
9234;SDS011;4652;42.716;23.218;2023-04-01T04:53:43;18.67;;;12.63;;
9234;SDS011;4652;42.716;23.218;2023-04-01T05:00:27;16.87;;;12.33;;
9234;SDS011;4652;42.716;23.218;2023-04-01T05:07:09;19.20;;;12.20;;
9234;SDS011;4652;42.716;23.218;2023-04-01T05:13:51;16.00;;;11.40;;
9234;SDS011;4652;42.716;23.218;2023-04-01T05:20:34;16.07;;;10.87;;
9234;SDS011;4652;42.716;23.218;2023-04-01T05:27:16;16.53;;;11.30;;
9234;SDS011;4652;42.716;23.218;2023-04-01T05:33:59;18.97;;;10.97;;
9234;SDS011;4652;42.716;23.218;2023-04-01T05:40:43;16.60;;;10.50;;
9234;SDS011;4652;42.716;23.218;2023-04-01T05:47:25;12.57;;;8.93;;
9234;SDS011;4652;42.716;23.218;2023-04-01T05:54:07;17.40;;;10.07;;
9234;SDS011;4652;42.716;23.218;2023-04-01T06:00:51;14.52;;;9.85;;
9234;SDS011;4652;42.716;23.218;2023-04-01T06:07:33;18.90;;;13.18;;
9234;SDS011;4652;42.716;23.218;2023-04-01T06:14:18;12.50;;;7.90;;
9234;SDS011;4652;42.716;23.218;2023-04-01T06:21:14;11.77;;;7.67;;
9234;SDS011;4652;42.716;23.218;2023-04-01T06:28:23;19.70;;;11.87;;
9234;SDS011;4652;42.716;23.218;2023-04-01T06:35:24;11.27;;;8.20;;
9234;SDS011;4652;42.716;23.218;2023-04-01T06:42:38;13.33;;;7.63;;
9234;SDS011;4652;42.716;23.218;2023-04-01T06:49:44;9.77;;;7.30;;
9234;SDS011;4652;42.716;23.218;2023-04-01T06:56:36;16.63;;;8.40;;
9234;SDS011;4652;42.716;23.218;2023-04-01T08:05:16;11.10;;;7.30;;
9234;SDS011;4652;42.716;23.218;2023-04-01T08:12:07;9.73;;;5.90;;
9234;SDS011;4652;42.716;23.218;2023-04-01T08:19:00;36.67;;;26.27;;
9234;SDS011;4652;42.716;23.218;2023-04-01T08:25:53;17.57;;;10.80;;
9234;SDS011;4652;42.716;23.218;2023-04-01T08:32:42;12.60;;;7.23;;
9234;SDS011;4652;42.716;23.218;2023-04-01T08:39:29;13.33;;;9.40;;
9234;SDS011;4652;42.716;23.218;2023-04-01T08:46:26;11.40;;;6.73;;
9234;SDS011;4652;42.716;23.218;2023-04-01T08:53:30;15.07;;;7.80;;
9234;SDS011;4652;42.716;23.218;2023-04-01T09:00:27;7.57;;;3.20;;
9234;SDS011;4652;42.716;23.218;2023-04-01T09:07:17;12.77;;;6.63;;
9234;SDS011;4652;42.716;23.218;2023-04-01T09:14:17;10.03;;;4.47;;
9234;SDS011;4652;42.716;23.218;2023-04-01T09:21:14;6.80;;;3.80;;
9234;SDS011;4652;42.716;23.218;2023-04-01T09:28:10;10.10;;;4.67;;
9234;SDS011;4652;42.716;23.218;2023-04-01T09:34:57;4.47;;;2.90;;
9234;SDS011;4652;42.716;23.218;2023-04-01T09:41:57;6.50;;;2.10;;
9234;SDS011;4652;42.716;23.218;2023-04-01T09:49:20;7.03;;;3.53;;
9234;SDS011;4652;42.716;23.218;2023-04-01T10:11:03;7.27;;;2.10;;
9234;SDS011;4652;42.716;23.218;2023-04-01T10:18:12;5.80;;;2.10;;
9234;SDS011;4652;42.716;23.218;2023-04-01T10:25:27;6.83;;;2.17;;
9234;SDS011;4652;42.716;23.218;2023-04-01T10:32:30;4.00;;;2.00;;
9234;SDS011;4652;42.716;23.218;2023-04-01T10:47:03;4.83;;;2.10;;
9234;SDS011;4652;42.716;23.218;2023-04-01T10:54:13;4.77;;;2.00;;
9234;SDS011;4652;42.716;23.218;2023-04-01T11:01:06;2.40;;;1.60;;
9234;SDS011;4652;42.716;23.218;2023-04-01T11:08:27;3.60;;;1.47;;
9234;SDS011;4652;42.716;23.218;2023-04-01T11:15:42;5.93;;;1.93;;
9234;SDS011;4652;42.716;23.218;2023-04-01T11:23:01;5.87;;;2.13;;
9234;SDS011;4652;42.716;23.218;2023-04-01T11:29:56;4.53;;;2.00;;
9234;SDS011;4652;42.716;23.218;2023-04-01T11:36:59;4.77;;;2.30;;
9234;SDS011;4652;42.716;23.218;2023-04-01T11:43:53;5.90;;;2.70;;
9234;SDS011;4652;42.716;23.218;2023-04-01T11:50:51;3.43;;;2.57;;
9234;SDS011;4652;42.716;23.218;2023-04-01T11:57:46;5.50;;;3.00;;
9234;SDS011;4652;42.716;23.218;2023-04-01T12:12:10;5.30;;;3.13;;
9234;SDS011;4652;42.716;23.218;2023-04-01T12:19:01;4.90;;;3.23;;
9234;SDS011;4652;42.716;23.218;2023-04-01T12:25:58;4.80;;;2.93;;
9234;SDS011;4652;42.716;23.218;2023-04-01T12:32:52;4.10;;;3.10;;
9234;SDS011;4652;42.716;23.218;2023-04-01T12:39:55;5.00;;;3.43;;
9234;SDS011;4652;42.716;23.218;2023-04-01T12:46:54;4.40;;;3.43;;
9234;SDS011;4652;42.716;23.218;2023-04-01T12:54:02;8.13;;;3.10;;
9234;SDS011;4652;42.716;23.218;2023-04-01T13:08:12;1.70;;;1.60;;
9234;SDS011;4652;42.716;23.218;2023-04-01T13:15:14;6.30;;;3.60;;
9234;SDS011;4652;42.716;23.218;2023-04-01T13:22:07;5.03;;;3.93;;
9234;SDS011;4652;42.716;23.218;2023-04-01T13:28:58;6.87;;;2.80;;
9234;SDS011;4652;42.716;23.218;2023-04-01T13:35:48;14.37;;;9.43;;
9234;SDS011;4652;42.716;23.218;2023-04-01T13:42:40;8.47;;;6.67;;
9234;SDS011;4652;42.716;23.218;2023-04-01T13:49:41;56.77;;;34.10;;
9234;SDS011;4652;42.716;23.218;2023-04-01T13:56:50;2.93;;;1.50;;
9234;SDS011;4652;42.716;23.218;2023-04-01T14:03:49;3.60;;;1.60;;
9234;SDS011;4652;42.716;23.218;2023-04-01T14:10:50;1.93;;;1.40;;
9234;SDS011;4652;42.716;23.218;2023-04-01T14:17:46;2.63;;;1.47;;
9234;SDS011;4652;42.716;23.218;2023-04-01T14:24:52;3.07;;;1.63;;
9234;SDS011;4652;42.716;23.218;2023-04-01T14:31:59;3.00;;;1.60;;
9234;SDS011;4652;42.716;23.218;2023-04-01T14:38:51;2.10;;;1.37;;
9234;SDS011;4652;42.716;23.218;2023-04-01T19:25:23;2.23;;;2.13;;
9234;SDS011;4652;42.716;23.218;2023-04-01T19:32:08;2.00;;;1.90;;
9234;SDS011;4652;42.716;23.218;2023-04-01T19:38:55;2.30;;;2.20;;
9234;SDS011;4652;42.716;23.218;2023-04-01T19:45:45;2.17;;;2.07;;
9234;SDS011;4652;42.716;23.218;2023-04-01T19:52:30;2.50;;;2.30;;
9234;SDS011;4652;42.716;23.218;2023-04-01T19:59:13;2.00;;;1.90;;
9234;SDS011;4652;42.716;23.218;2023-04-01T20:06:02;2.00;;;1.90;;
9234;SDS011;4652;42.716;23.218;2023-04-01T20:12:47;4.20;;;3.90;;
9234;SDS011;4652;42.716;23.218;2023-04-01T20:19:34;2.97;;;2.77;;
9234;SDS011;4652;42.716;23.218;2023-04-01T20:26:20;3.23;;;2.20;;
9234;SDS011;4652;42.716;23.218;2023-04-01T20:33:06;2.40;;;2.20;;
9234;SDS011;4652;42.716;23.218;2023-04-01T20:46:55;3.00;;;2.80;;
9234;SDS011;4652;42.716;23.218;2023-04-01T20:53:41;2.10;;;2.00;;
9234;SDS011;4652;42.716;23.218;2023-04-01T21:00:27;2.00;;;1.90;;
9234;SDS011;4652;42.716;23.218;2023-04-01T21:21:34;1.90;;;1.80;;
9234;SDS011;4652;42.716;23.218;2023-04-01T21:28:22;1.70;;;1.60;;
9234;SDS011;4652;42.716;23.218;2023-04-01T21:35:08;1.80;;;1.70;;
9234;SDS011;4652;42.716;23.218;2023-04-01T21:42:06;1.87;;;1.77;;
9234;SDS011;4652;42.716;23.218;2023-04-01T21:48:52;2.20;;;2.10;;
9234;SDS011;4652;42.716;23.218;2023-04-01T22:02:56;2.00;;;1.90;;
9234;SDS011;4652;42.716;23.218;2023-04-01T22:09:46;2.03;;;1.87;;
9234;SDS011;4652;42.716;23.218;2023-04-01T22:16:32;3.97;;;2.47;;
9234;SDS011;4652;42.716;23.218;2023-04-01T22:23:23;2.20;;;2.00;;
9234;SDS011;4652;42.716;23.218;2023-04-01T22:30:09;2.17;;;1.93;;
9234;SDS011;4652;42.716;23.218;2023-04-01T22:36:53;1.60;;;1.50;;
9234;SDS011;4652;42.716;23.218;2023-04-01T22:43:38;1.90;;;1.70;;
9234;SDS011;4652;42.716;23.218;2023-04-01T22:50:21;1.70;;;1.60;;
9234;SDS011;4652;42.716;23.218;2023-04-01T22:57:07;2.30;;;2.10;;
9234;SDS011;4652;42.716;23.218;2023-04-01T23:03:51;1.60;;;1.50;;
9234;SDS011;4652;42.716;23.218;2023-04-01T23:10:37;2.50;;;2.30;;
9234;SDS011;4652;42.716;23.218;2023-04-01T23:17:32;2.00;;;1.90;;
9234;SDS011;4652;42.716;23.218;2023-04-01T23:24:18;1.70;;;1.53;;
9234;SDS011;4652;42.716;23.218;2023-04-01T23:31:02;1.40;;;1.30;;
9234;SDS011;4652;42.716;23.218;2023-04-01T23:37:43;1.70;;;1.60;;
9234;SDS011;4652;42.716;23.218;2023-04-01T23:44:27;3.87;;;1.87;;
9234;SDS011;4652;42.716;23.218;2023-04-01T23:51:12;2.80;;;1.57;;
9234;SDS011;4652;42.716;23.218;2023-04-01T23:58:06;2.30;;;2.10;;
